createdAt,value
2024-01-15T00:02:04.991Z,6.27
2024-01-15T00:04:51.079Z,6.50
2024-01-15T00:07:37.574Z,6.27
2024-01-15T00:10:25.571Z,6.47
2024-01-15T00:13:11.735Z,6.07
2024-01-15T00:15:58.274Z,6.10
2024-01-15T00:18:45.039Z,5.70
2024-01-15T00:21:31.352Z,5.77
2024-01-15T00:24:17.687Z,5.17
2024-01-15T00:27:05.435Z,5.97
2024-01-15T00:29:52.920Z,8.00
2024-01-15T00:32:39.584Z,5.57
2024-01-15T00:35:26.026Z,5.33
2024-01-15T00:38:12.149Z,6.27
2024-01-15T00:40:58.232Z,5.57
2024-01-15T00:43:46.114Z,4.60
2024-01-15T00:46:32.092Z,5.20
2024-01-15T00:49:19.163Z,5.43
2024-01-15T00:52:06.411Z,6.00
2024-01-15T00:54:52.737Z,6.17
2024-01-15T00:57:38.919Z,5.50
2024-01-15T01:00:26.446Z,5.63
2024-01-15T01:03:12.679Z,6.37
2024-01-15T01:05:59.203Z,6.40
2024-01-15T01:08:45.618Z,6.03
2024-01-15T01:11:31.900Z,5.43
2024-01-15T01:14:18.181Z,4.43
2024-01-15T01:17:05.976Z,7.63
2024-01-15T01:19:52.427Z,5.77
2024-01-15T01:22:38.745Z,4.83
2024-01-15T01:25:25.083Z,7.63
2024-01-15T01:28:11.819Z,6.80
2024-01-15T01:30:58.055Z,7.07
2024-01-15T01:33:45.957Z,5.77
2024-01-15T01:36:33.610Z,6.80
2024-01-15T01:39:20.117Z,5.03
2024-01-15T01:42:07.361Z,6.00
2024-01-15T01:44:53.419Z,5.67
2024-01-15T01:47:40.684Z,7.00
2024-01-15T01:50:28.519Z,6.07
2024-01-15T01:53:15.952Z,4.97
2024-01-15T01:56:02.448Z,6.13
2024-01-15T01:58:49.808Z,4.53
2024-01-15T02:01:36.350Z,5.30
2024-01-15T02:04:25.019Z,3.83
2024-01-15T02:07:13.467Z,6.03
2024-01-15T02:10:00.175Z,5.00
2024-01-15T02:12:46.894Z,5.97
2024-01-15T02:15:33.270Z,4.73
2024-01-15T02:18:19.806Z,5.47
2024-01-15T02:21:06.316Z,5.87
2024-01-15T02:23:53.776Z,6.07
2024-01-15T02:26:40.373Z,4.93
2024-01-15T02:29:26.711Z,5.10
2024-01-15T02:32:13.419Z,4.70
2024-01-15T02:34:59.866Z,4.33
2024-01-15T02:37:45.943Z,5.27
2024-01-15T02:40:33.900Z,5.00
2024-01-15T02:43:21.038Z,4.13
2024-01-15T02:46:07.463Z,5.53
2024-01-15T02:48:53.678Z,4.67
2024-01-15T02:51:40.197Z,4.40
2024-01-15T02:54:26.272Z,4.57
2024-01-15T02:57:14.002Z,5.60
2024-01-15T03:00:00.587Z,2.80
2024-01-15T03:02:48.792Z,4.20
2024-01-15T03:05:35.253Z,5.93
2024-01-15T03:08:23.557Z,4.50
2024-01-15T03:11:09.690Z,3.63
2024-01-15T03:13:57.446Z,4.33
2024-01-15T03:16:43.824Z,4.80
2024-01-15T03:19:30.357Z,3.43
2024-01-15T03:22:16.569Z,3.53
2024-01-15T03:25:02.897Z,3.73
2024-01-15T03:27:49.149Z,4.27
2024-01-15T03:30:39.165Z,3.90
2024-01-15T03:33:25.305Z,4.17
2024-01-15T03:36:11.998Z,4.57
2024-01-15T03:38:58.378Z,3.80
2024-01-15T03:41:44.929Z,4.60
2024-01-15T03:44:31.420Z,4.00
2024-01-15T03:47:19.157Z,5.03
2024-01-15T03:50:05.670Z,4.87
2024-01-15T03:52:51.904Z,4.60
2024-01-15T03:55:38.021Z,3.67
2024-01-15T03:58:24.458Z,5.50
2024-01-15T04:01:11.410Z,4.53
2024-01-15T04:03:59.037Z,3.93
2024-01-15T04:06:45.383Z,4.00
2024-01-15T04:09:31.638Z,5.07
2024-01-15T04:12:18.050Z,3.97
2024-01-15T04:15:04.383Z,4.23
2024-01-15T04:17:50.590Z,4.70
2024-01-15T04:20:37.962Z,5.10
2024-01-15T04:23:24.444Z,3.67
2024-01-15T04:26:10.723Z,4.53
2024-01-15T04:28:56.909Z,5.13
2024-01-15T04:31:43.396Z,4.80
2024-01-15T04:34:30.182Z,4.33
2024-01-15T04:37:17.852Z,4.17
2024-01-15T04:40:05.213Z,4.10
2024-01-15T04:42:51.820Z,3.87
2024-01-15T04:45:38.045Z,4.47
2024-01-15T04:48:24.815Z,4.87
2024-01-15T04:51:11.558Z,3.63
2024-01-15T04:53:59.226Z,3.90
2024-01-15T04:56:45.992Z,4.00
2024-01-15T04:59:32.401Z,4.03
2024-01-15T05:02:18.727Z,3.37
2024-01-15T05:05:05.144Z,3.00
2024-01-15T05:07:51.506Z,2.73
2024-01-15T05:10:39.305Z,3.00
2024-01-15T05:13:25.422Z,3.33
2024-01-15T05:16:11.616Z,3.37
2024-01-15T05:18:58.289Z,3.03
2024-01-15T05:21:44.813Z,3.23
2024-01-15T05:24:30.997Z,2.63
2024-01-15T05:27:18.981Z,3.90
2024-01-15T05:30:06.248Z,2.80
2024-01-15T05:32:52.366Z,2.63
2024-01-15T05:35:38.794Z,4.67
2024-01-15T05:38:25.155Z,3.00
2024-01-15T05:41:12.169Z,3.63
2024-01-15T05:43:59.922Z,3.13
2024-01-15T05:46:46.252Z,3.33
2024-01-15T05:49:32.686Z,3.00
2024-01-15T05:52:18.944Z,3.50
2024-01-15T05:55:06.884Z,3.50
2024-01-15T05:57:53.225Z,2.87
2024-01-15T06:00:40.714Z,3.73
2024-01-15T06:03:27.267Z,2.47
2024-01-15T06:06:13.357Z,3.10
2024-01-15T06:09:06.055Z,3.47
2024-01-15T06:11:52.164Z,3.33
2024-01-15T06:14:38.572Z,2.30
2024-01-15T06:17:26.174Z,3.73
2024-01-15T06:20:13.747Z,3.10
2024-01-15T06:23:00.164Z,2.67
2024-01-15T06:25:46.666Z,3.10
2024-01-15T06:28:33.163Z,2.63
2024-01-15T06:31:19.673Z,2.77
2024-01-15T06:34:07.422Z,3.20
2024-01-15T06:36:53.870Z,3.63
2024-01-15T06:39:40.308Z,2.77
2024-01-15T06:42:27.471Z,2.70
2024-01-15T06:45:13.936Z,3.23
2024-01-15T06:48:00.389Z,3.03
2024-01-15T06:50:48.074Z,3.10
2024-01-15T06:53:34.278Z,3.43
2024-01-15T06:56:20.688Z,4.13
2024-01-15T06:59:06.721Z,2.77
2024-01-15T07:01:53.186Z,2.73
2024-01-15T07:04:42.786Z,3.63
2024-01-15T07:07:31.466Z,3.00
2024-01-15T07:10:19.115Z,3.03
2024-01-15T07:13:06.612Z,2.40
2024-01-15T07:15:53.000Z,2.50
2024-01-15T07:18:39.217Z,3.23
2024-01-15T07:21:25.839Z,3.10
2024-01-15T07:24:13.300Z,3.73
2024-01-15T07:27:00.102Z,2.60
2024-01-15T07:29:46.862Z,2.30
2024-01-15T07:32:33.014Z,2.10
2024-01-15T07:35:19.507Z,1.10
2024-01-15T07:38:06.027Z,2.20
2024-01-15T07:40:54.810Z,2.27
2024-01-15T07:43:41.167Z,2.63
2024-01-15T07:46:27.823Z,2.00
2024-01-15T07:49:14.455Z,2.03
2024-01-15T07:52:00.541Z,1.80
2024-01-15T07:54:46.767Z,1.73
2024-01-15T07:57:34.260Z,1.63
2024-01-15T08:00:20.647Z,1.27
2024-01-15T08:03:07.402Z,1.93
2024-01-15T08:05:55.274Z,1.53
2024-01-15T08:08:41.677Z,1.87
2024-01-15T08:11:27.815Z,1.30
2024-01-15T08:14:15.761Z,1.40
2024-01-15T08:17:02.367Z,1.90
2024-01-15T08:19:49.017Z,2.27
2024-01-15T08:22:35.581Z,2.37
2024-01-15T08:25:22.132Z,1.90
2024-01-15T08:28:09.309Z,1.90
2024-01-15T08:30:57.059Z,1.53
2024-01-15T08:33:43.460Z,1.50
2024-01-15T08:36:30.470Z,1.87
2024-01-15T08:39:16.915Z,1.63
2024-01-15T08:42:03.175Z,2.00
2024-01-15T08:44:49.632Z,1.73
2024-01-15T08:47:37.938Z,1.60
2024-01-15T08:50:24.092Z,2.30
2024-01-15T08:53:10.518Z,2.53
2024-01-15T08:55:58.438Z,1.97
2024-01-15T08:58:44.823Z,1.70
2024-01-15T09:01:31.932Z,1.43
2024-01-15T09:04:19.624Z,2.33
2024-01-15T09:07:06.388Z,2.07
2024-01-15T09:09:52.707Z,1.60
2024-01-15T09:12:40.100Z,1.17
2024-01-15T09:15:26.422Z,1.53
2024-01-15T09:18:12.648Z,1.90
2024-01-15T09:21:00.652Z,1.80
2024-01-15T09:23:47.053Z,1.67
2024-01-15T09:26:33.260Z,1.37
2024-01-15T09:29:19.616Z,1.33
2024-01-15T09:32:06.211Z,1.70
2024-01-15T09:34:52.660Z,1.40
2024-01-15T09:37:47.236Z,1.80
2024-01-15T09:40:35.394Z,1.50
2024-01-15T09:43:21.581Z,1.93
2024-01-15T09:46:08.227Z,1.60
2024-01-15T09:48:54.608Z,1.97
2024-01-15T09:51:42.115Z,1.67
2024-01-15T09:54:29.986Z,1.50
2024-01-15T09:57:16.553Z,1.80
2024-01-15T10:00:05.905Z,1.70
2024-01-15T10:02:52.305Z,1.20
2024-01-15T10:05:39.152Z,1.27
2024-01-15T10:08:25.933Z,1.30
2024-01-15T10:11:13.757Z,1.10
2024-01-15T10:14:00.304Z,1.23
2024-01-15T10:16:46.651Z,1.47
2024-01-15T10:19:33.500Z,1.73
2024-01-15T10:22:19.971Z,1.10
2024-01-15T10:25:07.136Z,1.03
2024-01-15T10:28:03.573Z,1.00
2024-01-15T10:30:54.023Z,1.20
2024-01-15T10:33:40.440Z,0.83
2024-01-15T10:36:28.285Z,1.37
2024-01-15T10:39:15.694Z,1.37
2024-01-15T10:42:01.875Z,1.23
2024-01-15T10:44:49.752Z,1.50
2024-01-15T10:47:36.472Z,1.47
2024-01-15T10:50:23.237Z,1.17
2024-01-15T10:53:10.702Z,1.50
2024-01-15T10:55:58.912Z,1.63
2024-01-15T10:58:45.473Z,1.33
2024-01-15T11:01:35.748Z,1.37
2024-01-15T11:04:23.359Z,1.70
2024-01-15T11:07:12.125Z,1.97
2024-01-15T11:09:59.548Z,2.27
2024-01-15T11:12:49.682Z,1.33
2024-01-15T11:16:00.854Z,1.17
2024-01-15T11:19:07.229Z,1.30
2024-01-15T11:21:53.274Z,1.40
2024-01-15T11:24:40.601Z,2.10
2024-01-15T11:27:43.116Z,1.47
2024-01-15T11:30:29.350Z,2.30
2024-01-15T11:33:38.024Z,1.17
2024-01-15T11:37:05.741Z,2.13
2024-01-15T11:39:54.830Z,1.33
2024-01-15T11:42:41.634Z,1.60
2024-01-15T11:45:29.331Z,1.40
2024-01-15T11:48:17.281Z,1.17
2024-01-15T11:51:05.902Z,0.83
2024-01-15T11:53:57.896Z,1.73
2024-01-15T11:56:44.165Z,1.33
2024-01-15T11:59:30.886Z,1.17
2024-01-15T12:02:17.269Z,0.90
2024-01-15T12:05:04.241Z,0.93
2024-01-15T12:07:52.770Z,0.93
2024-01-15T12:10:41.527Z,0.93
2024-01-15T12:13:29.034Z,1.57
2024-01-15T12:16:15.809Z,1.13
2024-01-15T12:19:02.413Z,1.13
2024-01-15T12:21:49.049Z,1.30
2024-01-15T12:24:36.472Z,1.70
2024-01-15T12:27:23.717Z,1.30
2024-01-15T12:30:13.473Z,1.60
2024-01-15T12:32:59.995Z,1.50
2024-01-15T12:35:46.661Z,1.50
2024-01-15T12:38:33.206Z,2.47
2024-01-15T12:41:20.940Z,1.60
2024-01-15T12:44:07.967Z,1.50
2024-01-15T12:46:54.561Z,1.43
2024-01-15T12:49:41.487Z,2.37
2024-01-15T12:52:31.224Z,1.10
2024-01-15T12:55:17.973Z,2.20
2024-01-15T12:58:05.927Z,1.93
2024-01-15T13:00:53.114Z,1.60
2024-01-15T13:03:40.014Z,1.40
2024-01-15T13:06:26.681Z,1.13
2024-01-15T13:09:13.051Z,1.13
2024-01-15T13:11:59.724Z,1.40
2024-01-15T13:14:48.084Z,1.50
2024-01-15T13:17:34.811Z,1.53
2024-01-15T13:20:21.139Z,1.30
2024-01-15T13:23:07.224Z,1.27
2024-01-15T13:25:53.597Z,1.63
2024-01-15T13:28:39.741Z,1.00
2024-01-15T13:31:27.690Z,1.20
2024-01-15T13:34:15.012Z,1.30
2024-01-15T13:37:01.250Z,1.70
2024-01-15T13:39:47.808Z,1.20
2024-01-15T13:42:34.213Z,1.30
2024-01-15T13:45:21.518Z,1.00
2024-01-15T13:48:09.445Z,1.33
2024-01-15T13:50:55.913Z,1.00
2024-01-15T13:53:42.395Z,1.23
2024-01-15T13:56:32.576Z,1.10
2024-01-15T13:59:19.107Z,1.10
2024-01-15T14:02:06.094Z,1.00
2024-01-15T14:04:53.796Z,1.17
2024-01-15T14:07:40.328Z,1.03
2024-01-15T14:10:26.474Z,0.97
2024-01-15T14:13:12.632Z,1.20
2024-01-15T14:15:59.203Z,0.83
2024-01-15T14:18:45.467Z,0.77
2024-01-15T14:21:33.187Z,0.90
2024-01-15T14:24:19.910Z,0.90
2024-01-15T14:27:08.114Z,0.87
2024-01-15T14:29:54.250Z,1.20
2024-01-15T14:32:40.546Z,0.70
2024-01-15T14:35:26.871Z,1.03
2024-01-15T14:38:14.346Z,1.10
2024-01-15T14:41:00.701Z,0.80
2024-01-15T14:43:47.457Z,0.90
2024-01-15T14:46:33.752Z,0.80
2024-01-15T14:49:22.855Z,0.50
2024-01-15T14:52:09.232Z,0.63
2024-01-15T14:54:56.815Z,0.87
2024-01-15T14:57:43.504Z,0.90
2024-01-15T15:00:30.547Z,0.73
2024-01-15T15:03:17.008Z,0.90
2024-01-15T15:06:03.226Z,1.20
2024-01-15T15:08:49.485Z,0.93
2024-01-15T15:11:37.632Z,1.10
2024-01-15T15:14:23.949Z,0.90
2024-01-15T15:17:11.228Z,0.87
2024-01-15T15:19:57.879Z,0.90
2024-01-15T15:22:44.729Z,1.00
2024-01-15T15:25:30.911Z,1.07
2024-01-15T15:28:18.688Z,1.00
2024-01-15T15:31:05.214Z,0.80
2024-01-15T15:33:51.812Z,0.87
2024-01-15T15:36:38.589Z,1.00
2024-01-15T15:39:24.788Z,1.00
2024-01-15T15:42:11.246Z,0.73
2024-01-15T15:45:00.752Z,1.57
2024-01-15T15:47:49.295Z,1.03
2024-01-15T15:50:37.072Z,0.60
2024-01-15T15:53:24.411Z,0.80
2024-01-15T15:56:11.241Z,0.90
2024-01-15T15:58:57.604Z,0.60
2024-01-15T16:01:45.132Z,0.80
2024-01-15T16:04:31.671Z,0.93
2024-01-15T16:07:18.054Z,0.70
2024-01-15T16:10:04.812Z,0.90
2024-01-15T16:12:51.490Z,0.90
2024-01-15T16:15:37.578Z,0.73
2024-01-15T16:23:20.822Z,1.13
2024-01-15T16:23:36.952Z,1.00
2024-01-15T16:24:49.112Z,1.20
2024-01-15T16:27:38.297Z,0.70
2024-01-15T16:30:29.873Z,1.00
2024-01-15T16:33:23.108Z,1.07
2024-01-15T16:36:11.058Z,0.93
2024-01-15T16:38:57.235Z,0.70
2024-01-15T16:41:43.737Z,1.53
2024-01-15T16:44:31.621Z,1.00
2024-01-15T16:47:17.884Z,1.20
2024-01-15T16:50:04.920Z,0.90
2024-01-15T16:52:52.260Z,0.97
2024-01-15T16:55:38.478Z,1.00
2024-01-15T16:58:24.938Z,1.20
2024-01-15T17:01:11.971Z,1.13
2024-01-15T17:03:58.147Z,0.83
2024-01-15T17:06:44.726Z,1.00
2024-01-15T17:09:32.124Z,1.97
2024-01-15T17:12:18.739Z,1.30
2024-01-15T17:15:05.615Z,1.53
2024-01-15T17:17:52.080Z,1.37
2024-01-15T17:20:41.230Z,2.00
2024-01-15T17:23:27.604Z,1.77
2024-01-15T17:26:15.656Z,1.57
2024-01-15T17:29:02.137Z,1.33
2024-01-15T17:31:48.711Z,2.30
2024-01-15T17:34:35.005Z,2.20
2024-01-15T17:37:21.272Z,1.87
2024-01-15T17:40:09.365Z,2.33
2024-01-15T17:42:57.236Z,2.17
2024-01-15T17:45:43.688Z,2.07
2024-01-15T17:48:30.338Z,1.83
2024-01-15T17:51:18.690Z,1.67
2024-01-15T17:54:05.527Z,2.13
2024-01-15T17:56:51.792Z,1.63
2024-01-15T17:59:39.666Z,2.20
2024-01-15T18:02:25.975Z,2.40
2024-01-15T18:05:12.181Z,1.67
2024-01-15T18:07:58.713Z,2.03
2024-01-15T18:10:45.215Z,1.87
2024-01-15T18:13:31.196Z,1.87
2024-01-15T18:16:23.373Z,1.80
2024-01-15T18:19:10.148Z,1.90
2024-01-15T18:21:56.119Z,2.00
2024-01-15T18:24:42.433Z,1.87
2024-01-15T18:27:29.480Z,1.63
2024-01-15T18:30:16.415Z,1.70
2024-01-15T18:33:04.357Z,1.03
2024-01-15T18:35:50.687Z,2.27
2024-01-15T18:38:37.301Z,1.80
2024-01-15T18:41:25.409Z,1.30
2024-01-15T18:44:12.009Z,1.30
2024-01-15T18:46:58.672Z,1.27
2024-01-15T18:49:46.142Z,1.23
2024-01-15T18:52:32.815Z,1.00
2024-01-15T18:55:20.538Z,0.90
2024-01-15T18:58:07.031Z,1.60
2024-01-15T19:00:53.372Z,1.77
2024-01-15T19:03:39.917Z,1.47
2024-01-15T19:06:27.864Z,1.37
2024-01-15T19:09:14.487Z,2.07
2024-01-15T19:12:01.072Z,1.67
2024-01-15T19:14:47.437Z,1.80
2024-01-15T19:17:33.723Z,1.73
2024-01-15T19:20:19.845Z,2.10
2024-01-15T19:23:07.837Z,2.00
2024-01-15T19:25:54.246Z,2.03
2024-01-15T19:28:40.587Z,1.90
2024-01-15T19:31:27.613Z,1.40
2024-01-15T19:34:14.006Z,2.00
2024-01-15T19:37:00.166Z,1.63
2024-01-15T19:39:48.075Z,1.67
2024-01-15T19:42:34.594Z,1.60
2024-01-15T19:45:20.870Z,1.10
2024-01-15T19:48:07.703Z,1.60
2024-01-15T19:50:55.527Z,1.87
2024-01-15T19:53:41.821Z,1.73
2024-01-15T19:56:29.269Z,1.90
2024-01-15T19:59:15.519Z,1.80
2024-01-15T20:02:01.728Z,2.07
2024-01-15T20:04:47.822Z,2.03
2024-01-15T20:07:33.921Z,1.70
2024-01-15T20:10:20.377Z,1.93
2024-01-15T20:13:08.141Z,1.43
2024-01-15T20:15:54.422Z,1.33
2024-01-15T20:18:40.908Z,1.93
2024-01-15T20:21:28.061Z,1.60
2024-01-15T20:24:14.478Z,1.70
2024-01-15T20:27:00.594Z,1.53
2024-01-15T20:29:48.273Z,1.70
2024-01-15T20:32:35.213Z,1.70
2024-01-15T20:35:23.519Z,1.67
2024-01-15T20:38:10.296Z,1.80
2024-01-15T20:40:56.355Z,1.67
2024-01-15T20:43:42.820Z,1.50
2024-01-15T20:46:30.389Z,1.67
2024-01-15T20:49:16.684Z,1.97
2024-01-15T20:52:06.591Z,1.87
2024-01-15T20:54:52.825Z,1.53
2024-01-15T20:57:39.282Z,1.50
2024-01-15T21:00:25.547Z,2.00
2024-01-15T21:03:13.319Z,1.63
2024-01-15T21:06:00.012Z,1.33
2024-01-15T21:08:46.976Z,1.53
2024-01-15T21:11:33.653Z,1.93
2024-01-15T21:14:20.189Z,1.07
2024-01-15T21:17:06.512Z,1.40
2024-01-15T21:19:56.706Z,1.10
2024-01-15T21:22:42.993Z,1.70
2024-01-15T21:25:29.061Z,1.27
2024-01-15T21:28:15.492Z,1.57
2024-01-15T21:31:03.277Z,2.23
2024-01-15T21:33:51.332Z,1.10
2024-01-15T21:36:39.876Z,1.40
2024-01-15T21:39:27.769Z,1.70
2024-01-15T21:42:16.489Z,2.10
2024-01-15T21:45:03.011Z,2.27
2024-01-15T21:47:49.534Z,1.50
2024-01-15T21:50:36.168Z,1.80
2024-01-15T21:53:23.659Z,1.27
2024-01-15T21:56:11.954Z,1.87
2024-01-15T21:58:58.700Z,1.30
2024-01-15T22:01:44.886Z,1.57
2024-01-15T22:04:31.396Z,1.10
2024-01-15T22:07:17.750Z,1.40
2024-01-15T22:10:08.338Z,1.27
2024-01-15T22:12:54.537Z,1.60
2024-01-15T22:15:40.644Z,1.50
2024-01-15T22:18:26.909Z,1.60
2024-01-15T22:21:13.112Z,1.60
2024-01-15T22:23:59.537Z,1.63
2024-01-15T22:26:47.484Z,1.87
2024-01-15T22:29:33.998Z,1.70
2024-01-15T22:32:20.550Z,2.40
2024-01-15T22:35:07.716Z,1.60
2024-01-15T22:37:53.868Z,1.33
2024-01-15T22:40:40.116Z,2.53
2024-01-15T22:43:28.172Z,1.50
2024-01-15T22:46:15.116Z,1.40
2024-01-15T22:49:01.452Z,1.87
2024-01-15T22:51:47.751Z,1.70
2024-01-15T22:54:34.193Z,1.37
2024-01-15T22:57:20.620Z,2.07
2024-01-15T23:00:14.119Z,2.37
2024-01-15T23:03:02.243Z,2.03
2024-01-15T23:05:48.695Z,1.57
2024-01-15T23:08:35.109Z,1.60
2024-01-15T23:11:21.453Z,1.60
2024-01-15T23:14:07.541Z,1.80
2024-01-15T23:16:55.235Z,2.43
2024-01-15T23:19:41.714Z,1.63
2024-01-15T23:22:28.129Z,1.50
2024-01-15T23:25:14.323Z,1.43
2024-01-15T23:28:00.865Z,1.60
2024-01-15T23:30:47.392Z,2.17
2024-01-15T23:33:35.229Z,2.07
2024-01-15T23:36:21.457Z,2.87
2024-01-15T23:39:08.810Z,2.27
2024-01-15T23:41:55.058Z,1.93
2024-01-15T23:44:41.393Z,2.40
2024-01-15T23:47:27.966Z,1.93
2024-01-15T23:50:15.345Z,2.67
2024-01-15T23:53:01.457Z,2.30
2024-01-15T23:55:47.654Z,1.53
2024-01-15T23:58:33.844Z,2.93
